Time;durP1;ratioP1;P1;durP2;ratioP2;P2;SDS_P1;SDS_P2;PMS_P1;PMS_P2;Temp;Humidity;BMP_temperature;BMP_pressure;BME280_temperature;BME280_humidity;BME280_pressure;Samples;Min_cycle;Max_cycle;Signal;HPM_P1;HPM_P2
2022/08/17 11:40:45;;;;;;;;;;;13.50;82.80;;;;;;6143398;23;19927;-78
2022/08/17 11:43:22;;;;;;;;;;;13.50;82.70;;;;;;6047439;23;19921;-85
2022/08/17 11:45:55;;;;;;;;;;;13.40;83.00;;;;;;6101058;23;19916;-81
2022/08/17 11:51:46;;;;;;;;;;;13.40;83.60;;;;;;6150233;23;20061;-78
2022/08/17 11:54:34;;;;;;;;;;;13.30;83.70;;;;;;6150312;23;19916;-86
2022/08/17 11:57:20;;;;;;;;;;;13.20;83.90;;;;;;6151066;23;20408;-80
2022/08/17 11:59:46;;;;;;;;;;;13.20;84.20;;;;;;6151136;23;19991;-78
2022/08/17 12:02:20;;;;;;;;;;;13.20;84.20;;;;;;6151295;23;19998;-79
2022/08/17 12:05:05;;;;;;;;;;;13.20;84.20;;;;;;6150612;23;19958;-75
2022/08/17 12:07:32;;;;;;;;;;;13.10;84.50;;;;;;6150655;23;20328;-75
2022/08/17 12:09:58;;;;;;;;;;;13.10;84.90;;;;;;6126934;23;19908;-75
2022/08/17 12:12:32;;;;;;;;;;;13.10;84.80;;;;;;6127036;23;19908;-75
2022/08/17 12:14:58;;;;;;;;;;;13.10;84.70;;;;;;6127817;23;19971;-75
2022/08/17 12:17:26;;;;;;;;;;;13.10;84.60;;;;;;6126406;23;19940;-74
2022/08/17 12:19:52;;;;;;;;;;;13.10;84.20;;;;;;6124291;23;20434;-74
2022/08/17 12:22:19;;;;;;;;;;;13.10;83.90;;;;;;6127018;23;19904;-74
2022/08/17 12:25:04;;;;;;;;;;;13.10;83.90;;;;;;6126198;23;19931;-73
2022/08/17 12:27:32;;;;;;;;;;;13.10;83.80;;;;;;6152611;23;19957;-73
2022/08/17 12:29:59;;;;;;;;;;;13.10;83.90;;;;;;6126563;23;20514;-74
2022/08/17 12:32:26;;;;;;;;;;;13.10;83.80;;;;;;6126489;23;19947;-75
2022/08/17 12:34:53;;;;;;;;;;;13.10;83.80;;;;;;6125969;23;19916;-73
2022/08/17 12:37:21;;;;;;;;;;;13.10;83.80;;;;;;6155231;23;19904;-76
2022/08/17 13:27:39;;;;;;;;;;;12.60;84.70;;;;;;6147968;23;20388;-74
2022/08/17 13:30:07;;;;;;;;;;;12.60;85.00;;;;;;6128218;23;19925;-74
2022/08/17 13:32:35;;;;;;;;;;;12.50;84.90;;;;;;6104937;23;20387;-74
2022/08/17 13:35:05;;;;;;;;;;;12.50;84.70;;;;;;6129746;23;19920;-75
2022/08/17 13:37:32;;;;;;;;;;;12.50;84.70;;;;;;6156012;23;19911;-74
2022/08/17 13:40:08;;;;;;;;;;;12.50;84.60;;;;;;6129137;23;19912;-75
2022/08/17 13:42:41;;;;;;;;;;;12.50;84.60;;;;;;6155819;23;20332;-74
2022/08/17 13:45:26;;;;;;;;;;;12.50;84.60;;;;;;6155139;23;19932;-74
2022/08/17 13:48:13;;;;;;;;;;;12.50;84.30;;;;;;6155919;23;19904;-74
2022/08/17 13:50:43;;;;;;;;;;;12.40;84.70;;;;;;6135172;23;19979;-75
2022/08/17 13:53:21;;;;;;;;;;;12.40;84.70;;;;;;6155547;23;19904;-74
2022/08/17 13:55:49;;;;;;;;;;;12.40;84.90;;;;;;6155194;23;19905;-74
2022/08/17 13:58:23;;;;;;;;;;;12.40;85.00;;;;;;6105048;23;19931;-74
2022/08/17 14:00:50;;;;;;;;;;;12.30;85.10;;;;;;6154851;23;19915;-74
2022/08/17 14:03:17;;;;;;;;;;;12.20;85.00;;;;;;6129096;23;19945;-74
2022/08/17 14:05:44;;;;;;;;;;;12.20;85.00;;;;;;6129382;23;19909;-74
2022/08/17 14:08:11;;;;;;;;;;;12.30;85.10;;;;;;6104287;23;19959;-74
2022/08/17 14:10:38;;;;;;;;;;;12.30;84.90;;;;;;6129883;23;20244;-74
2022/08/17 14:13:05;;;;;;;;;;;12.20;84.90;;;;;;6155529;23;19944;-74
2022/08/17 14:15:32;;;;;;;;;;;12.20;84.60;;;;;;6129075;23;19916;-74
2022/08/17 14:17:59;;;;;;;;;;;12.20;84.50;;;;;;6155050;23;19908;-74
2022/08/17 14:20:25;;;;;;;;;;;12.20;84.50;;;;;;6154972;23;19904;-74
2022/08/17 14:22:54;;;;;;;;;;;12.20;84.60;;;;;;6129111;23;19905;-74
2022/08/17 14:25:22;;;;;;;;;;;12.20;84.60;;;;;;6155104;23;19911;-74
2022/08/17 14:27:49;;;;;;;;;;;12.20;84.50;;;;;;6154853;23;19905;-74
2022/08/17 14:30:16;;;;;;;;;;;12.20;84.30;;;;;;6154557;23;19987;-74
2022/08/17 14:32:43;;;;;;;;;;;12.20;84.50;;;;;;6154290;23;20371;-74
2022/08/17 14:35:10;;;;;;;;;;;12.20;84.60;;;;;;6155055;23;19916;-74
2022/08/17 14:37:37;;;;;;;;;;;12.10;84.60;;;;;;6154677;23;20312;-74
2022/08/17 14:40:05;;;;;;;;;;;12.20;84.50;;;;;;6154791;23;20227;-74
2022/08/17 14:42:32;;;;;;;;;;;12.10;84.30;;;;;;6128279;23;19947;-74
2022/08/17 14:44:59;;;;;;;;;;;12.20;84.30;;;;;;6154740;23;19943;-74
2022/08/17 14:47:25;;;;;;;;;;;12.10;84.10;;;;;;6155167;23;19915;-74
2022/08/17 14:49:52;;;;;;;;;;;12.10;83.90;;;;;;6155031;23;19913;-74
2022/08/17 14:52:22;;;;;;;;;;;12.10;83.90;;;;;;6155455;23;19909;-74
2022/08/17 14:54:50;;;;;;;;;;;12.10;83.70;;;;;;6154181;23;19946;-74
2022/08/17 14:57:20;;;;;;;;;;;12.10;83.80;;;;;;6154563;23;19908;-74
2022/08/17 14:59:47;;;;;;;;;;;12.10;84.00;;;;;;6155293;23;19940;-74
2022/08/17 15:02:14;;;;;;;;;;;12.00;83.90;;;;;;6129314;23;19908;-74
2022/08/17 15:04:40;;;;;;;;;;;12.10;83.80;;;;;;6155284;23;19909;-74
2022/08/17 15:07:07;;;;;;;;;;;12.00;83.70;;;;;;6154855;23;20343;-74
2022/08/17 15:14:24;;;;;;;;;;;12.00;83.80;;;;;;6154402;23;19939;-74
2022/08/17 15:16:51;;;;;;;;;;;11.90;83.80;;;;;;6154597;23;19915;-74
2022/08/17 15:19:17;;;;;;;;;;;12.00;83.90;;;;;;6128420;23;20320;-74
2022/08/17 15:21:45;;;;;;;;;;;11.90;83.60;;;;;;6128005;23;19908;-75
2022/08/17 15:24:12;;;;;;;;;;;11.80;83.80;;;;;;6104353;23;20291;-76
2022/08/17 15:26:39;;;;;;;;;;;11.90;84.10;;;;;;6128773;23;19904;-75
2022/08/17 15:29:06;;;;;;;;;;;11.90;83.90;;;;;;6128683;23;19912;-76
2022/08/17 15:31:32;;;;;;;;;;;12.00;83.70;;;;;;6128679;23;20054;-75
2022/08/17 15:33:59;;;;;;;;;;;11.90;83.60;;;;;;6104192;23;19913;-76
2022/08/17 15:36:26;;;;;;;;;;;11.80;83.80;;;;;;6154726;23;19960;-75
2022/08/17 15:38:53;;;;;;;;;;;11.80;84.50;;;;;;6129046;23;19991;-75
2022/08/17 15:41:20;;;;;;;;;;;11.70;84.90;;;;;;6104230;23;19905;-76
2022/08/17 15:43:48;;;;;;;;;;;11.70;85.50;;;;;;6155081;23;20492;-75
2022/08/17 15:46:17;;;;;;;;;;;11.70;85.60;;;;;;6130131;23;19909;-75
2022/08/17 15:48:45;;;;;;;;;;;11.70;85.70;;;;;;6156774;23;19909;-75
2022/08/17 15:51:13;;;;;;;;;;;11.70;85.50;;;;;;6130553;23;19987;-75
2022/08/17 15:53:39;;;;;;;;;;;11.70;85.70;;;;;;6156314;23;19915;-76
2022/08/17 15:56:06;;;;;;;;;;;11.60;86.10;;;;;;6130773;23;19946;-75
2022/08/17 15:58:33;;;;;;;;;;;11.60;86.50;;;;;;6156686;23;20080;-76
2022/08/17 16:01:01;;;;;;;;;;;11.50;86.80;;;;;;6130560;23;20261;-75
2022/08/17 16:03:29;;;;;;;;;;;11.50;86.90;;;;;;6156398;23;19959;-75
2022/08/17 16:05:56;;;;;;;;;;;11.50;86.90;;;;;;6156278;23;19911;-75
2022/08/17 16:08:23;;;;;;;;;;;11.50;87.00;;;;;;6156263;23;20312;-75
2022/08/17 16:10:49;;;;;;;;;;;11.50;86.70;;;;;;6130452;23;19944;-75
2022/08/17 16:13:16;;;;;;;;;;;11.40;86.90;;;;;;6130203;23;20311;-75
2022/08/17 16:15:43;;;;;;;;;;;11.40;87.00;;;;;;6130474;23;19931;-75
2022/08/17 16:18:10;;;;;;;;;;;11.40;86.80;;;;;;6130470;23;19983;-75
2022/08/17 16:20:36;;;;;;;;;;;11.40;87.00;;;;;;6156070;23;19909;-75
2022/08/17 16:23:03;;;;;;;;;;;11.40;87.00;;;;;;6156215;23;19975;-75
2022/08/17 16:25:31;;;;;;;;;;;11.30;87.10;;;;;;6130308;23;20231;-75
2022/08/17 16:27:58;;;;;;;;;;;11.40;87.10;;;;;;6130729;23;20240;-75
2022/08/17 16:30:25;;;;;;;;;;;11.40;87.10;;;;;;6130166;23;19904;-75
2022/08/17 16:32:52;;;;;;;;;;;11.40;86.90;;;;;;6155881;23;19928;-75
2022/08/17 16:35:21;;;;;;;;;;;11.30;87.00;;;;;;6129972;23;19964;-75
2022/08/17 16:37:47;;;;;;;;;;;11.30;87.00;;;;;;6130678;23;19913;-75
2022/08/17 16:40:14;;;;;;;;;;;11.40;86.90;;;;;;6156458;23;19905;-75
2022/08/17 16:42:42;;;;;;;;;;;11.30;86.70;;;;;;6155838;23;19952;-75
2022/08/17 16:45:13;;;;;;;;;;;11.30;86.70;;;;;;6156336;23;19943;-75
2022/08/17 16:47:43;;;;;;;;;;;11.30;86.60;;;;;;6156063;23;19909;-75
2022/08/17 16:50:11;;;;;;;;;;;11.20;86.50;;;;;;6130913;23;19954;-75
2022/08/17 16:52:37;;;;;;;;;;;11.20;86.50;;;;;;6155995;23;19912;-75
2022/08/17 16:55:04;;;;;;;;;;;11.20;86.40;;;;;;6155646;23;20217;-75
2022/08/17 16:57:31;;;;;;;;;;;11.20;86.20;;;;;;6155514;23;20313;-75
2022/08/17 16:59:58;;;;;;;;;;;11.20;86.50;;;;;;6156268;23;19905;-75
2022/08/17 17:02:31;;;;;;;;;;;11.10;86.40;;;;;;6155529;23;20288;-75
2022/08/17 17:05:01;;;;;;;;;;;11.10;86.60;;;;;;6155691;23;19905;-75
2022/08/17 17:07:37;;;;;;;;;;;11.10;87.00;;;;;;6155295;23;20308;-75
2022/08/17 17:10:04;;;;;;;;;;;11.10;86.80;;;;;;6156209;23;19905;-75
2022/08/17 17:12:31;;;;;;;;;;;11.00;86.70;;;;;;6129772;23;19904;-75
2022/08/17 17:15:01;;;;;;;;;;;11.10;86.60;;;;;;6156017;23;19919;-75
2022/08/17 17:17:34;;;;;;;;;;;11.00;86.90;;;;;;6156160;23;19920;-75
2022/08/17 17:20:17;;;;;;;;;;;11.00;87.20;;;;;;6154826;23;19927;-75
2022/08/17 17:23:03;;;;;;;;;;;11.10;87.20;;;;;;6155597;23;19909;-75
2022/08/17 17:25:49;;;;;;;;;;;11.20;86.90;;;;;;6129901;23;19905;-75
2022/08/17 17:28:23;;;;;;;;;;;11.20;86.70;;;;;;6155438;23;19991;-76
2022/08/17 17:31:07;;;;;;;;;;;11.10;86.90;;;;;;6130635;23;19915;-75
2022/08/17 17:33:37;;;;;;;;;;;11.10;86.90;;;;;;6129527;23;19967;-75
2022/08/17 17:36:26;;;;;;;;;;;11.10;87.00;;;;;;6155381;23;19952;-75
2022/08/17 17:39:09;;;;;;;;;;;11.10;87.10;;;;;;6142263;23;20005;-76
2022/08/17 17:41:46;;;;;;;;;;;11.00;87.00;;;;;;6155653;23;19909;-75
2022/08/17 17:44:13;;;;;;;;;;;11.00;86.80;;;;;;6129585;23;19951;-75
2022/08/17 17:46:44;;;;;;;;;;;10.90;87.20;;;;;;6129331;23;19911;-75
2022/08/17 17:49:12;;;;;;;;;;;10.90;87.10;;;;;;6155795;23;20305;-75
2022/08/17 17:51:42;;;;;;;;;;;10.90;87.20;;;;;;6155987;23;19983;-75
2022/08/17 17:54:12;;;;;;;;;;;10.90;87.10;;;;;;6155245;23;19913;-75
2022/08/17 17:56:45;;;;;;;;;;;10.90;87.20;;;;;;6156157;23;19908;-74
2022/08/17 17:59:22;;;;;;;;;;;10.80;87.20;;;;;;6129038;23;19909;-74
2022/08/17 18:01:53;;;;;;;;;;;10.80;87.20;;;;;;6129589;23;19905;-75
2022/08/17 18:04:20;;;;;;;;;;;10.80;87.20;;;;;;6155571;23;19983;-75
2022/08/17 18:06:49;;;;;;;;;;;10.70;87.30;;;;;;6155511;23;19912;-75
2022/08/17 18:09:19;;;;;;;;;;;10.70;87.30;;;;;;6154918;23;19912;-75
2022/08/17 18:11:59;;;;;;;;;;;10.70;87.40;;;;;;6155390;23;19947;-76
2022/08/17 18:14:25;;;;;;;;;;;10.70;87.40;;;;;;6128947;23;19921;-75
2022/08/17 18:16:53;;;;;;;;;;;10.70;87.20;;;;;;6155021;23;19913;-76
2022/08/17 18:19:20;;;;;;;;;;;10.70;87.00;;;;;;6155060;23;20279;-75
2022/08/17 18:21:47;;;;;;;;;;;10.70;87.10;;;;;;6155012;23;19913;-75
2022/08/17 18:24:14;;;;;;;;;;;10.70;87.10;;;;;;6155079;23;19916;-75
2022/08/17 18:26:45;;;;;;;;;;;10.60;87.10;;;;;;6155187;23;19905;-75
2022/08/17 18:29:13;;;;;;;;;;;10.60;87.40;;;;;;6129112;23;19924;-75
2022/08/17 18:31:40;;;;;;;;;;;10.60;87.50;;;;;;6128877;23;19904;-75
2022/08/17 18:34:35;;;;;;;;;;;10.60;87.50;;;;;;6154537;23;19917;-75
2022/08/17 18:37:05;;;;;;;;;;;10.70;87.40;;;;;;6129943;23;19905;-75
2022/08/17 18:39:32;;;;;;;;;;;10.70;87.30;;;;;;6129407;23;19966;-75
2022/08/17 18:41:59;;;;;;;;;;;10.60;86.90;;;;;;6155111;23;19909;-76
2022/08/17 18:44:29;;;;;;;;;;;10.60;87.10;;;;;;6155327;23;19911;-76
2022/08/17 18:47:06;;;;;;;;;;;10.60;87.20;;;;;;6129451;23;19912;-75
2022/08/17 18:49:33;;;;;;;;;;;10.60;87.00;;;;;;6155056;23;20332;-82
2022/08/17 18:52:18;;;;;;;;;;;10.60;87.10;;;;;;6129000;23;19905;-76
2022/08/17 18:54:59;;;;;;;;;;;10.60;87.20;;;;;;6154722;23;19916;-77
2022/08/17 18:57:36;;;;;;;;;;;10.50;87.00;;;;;;6154291;23;20339;-78
2022/08/17 19:00:13;;;;;;;;;;;10.50;87.00;;;;;;6102747;23;19905;-76
2022/08/17 19:02:50;;;;;;;;;;;10.50;87.30;;;;;;6154113;23;19985;-76
2022/08/17 19:05:27;;;;;;;;;;;10.50;87.40;;;;;;6154243;23;20001;-76
2022/08/17 19:07:54;;;;;;;;;;;10.50;87.50;;;;;;6154563;23;19920;-76
2022/08/17 19:10:27;;;;;;;;;;;10.40;87.40;;;;;;6128762;23;19911;-77
2022/08/17 19:13:09;;;;;;;;;;;10.40;87.40;;;;;;6154874;23;19916;-76
2022/08/17 19:15:40;;;;;;;;;;;10.40;87.40;;;;;;6154257;23;20249;-76
2022/08/17 19:18:37;;;;;;;;;;;10.40;87.70;;;;;;6128317;23;19908;-76
2022/08/17 19:21:10;;;;;;;;;;;10.30;87.20;;;;;;6129214;23;19912;-76
2022/08/17 19:23:48;;;;;;;;;;;10.20;87.50;;;;;;6128217;23;19927;-77
2022/08/17 19:26:16;;;;;;;;;;;10.30;87.70;;;;;;6154406;23;19909;-77
2022/08/17 19:29:03;;;;;;;;;;;10.20;87.60;;;;;;6104341;23;19904;-77
2022/08/17 19:31:30;;;;;;;;;;;10.30;87.60;;;;;;6154130;23;19909;-77
2022/08/17 19:33:56;;;;;;;;;;;10.30;87.60;;;;;;6128397;23;19963;-80
2022/08/17 19:36:49;;;;;;;;;;;10.30;87.60;;;;;;6128956;23;19944;-70
2022/08/17 19:39:23;;;;;;;;;;;10.30;87.60;;;;;;6149081;23;19912;-70
2022/08/17 19:41:49;;;;;;;;;;;10.20;87.50;;;;;;6154487;23;19915;-70
2022/08/17 19:44:36;;;;;;;;;;;10.30;87.60;;;;;;6153973;23;20181;-70
2022/08/17 19:47:07;;;;;;;;;;;10.30;87.60;;;;;;6128850;23;20247;-70
2022/08/17 19:49:45;;;;;;;;;;;10.30;87.40;;;;;;6128638;23;19904;-70
2022/08/17 19:52:24;;;;;;;;;;;10.30;87.40;;;;;;6128941;23;19975;-70
2022/08/17 19:55:01;;;;;;;;;;;10.30;87.30;;;;;;6154051;23;20343;-70
2022/08/17 19:57:43;;;;;;;;;;;10.30;87.30;;;;;;6128970;23;19912;-70
2022/08/17 20:00:12;;;;;;;;;;;10.30;87.30;;;;;;6154788;23;19987;-70
2022/08/17 20:02:54;;;;;;;;;;;10.30;87.20;;;;;;6129153;23;19987;-70
2022/08/17 20:05:25;;;;;;;;;;;10.30;87.20;;;;;;6154536;23;19913;-70
2022/08/17 20:07:55;;;;;;;;;;;10.30;86.80;;;;;;6128632;23;19912;-70
2022/08/17 20:10:30;;;;;;;;;;;10.30;86.70;;;;;;6154490;23;20277;-70
2022/08/17 20:13:05;;;;;;;;;;;10.30;86.60;;;;;;6154764;23;19916;-70
2022/08/17 20:15:33;;;;;;;;;;;10.30;86.40;;;;;;6128363;23;19912;-70
2022/08/17 20:18:00;;;;;;;;;;;10.20;86.50;;;;;;6128530;23;19987;-70
2022/08/17 20:20:45;;;;;;;;;;;10.20;86.70;;;;;;6128628;23;19909;-70
2022/08/17 20:23:12;;;;;;;;;;;10.20;86.60;;;;;;6154844;23;19904;-70
2022/08/17 20:25:44;;;;;;;;;;;10.30;86.70;;;;;;6154024;23;19905;-70
2022/08/17 20:28:17;;;;;;;;;;;10.30;86.60;;;;;;6154268;23;19905;-70
2022/08/17 20:30:43;;;;;;;;;;;10.20;86.60;;;;;;6129192;23;19979;-70
2022/08/17 20:33:33;;;;;;;;;;;10.20;86.70;;;;;;6156092;23;19909;-70
2022/08/17 20:36:20;;;;;;;;;;;10.20;86.60;;;;;;6141055;23;20287;-70
2022/08/17 20:38:53;;;;;;;;;;;10.20;86.30;;;;;;6155807;23;19905;-70
2022/08/17 20:41:21;;;;;;;;;;;10.20;86.60;;;;;;6129686;23;19905;-70
2022/08/17 20:43:50;;;;;;;;;;;10.20;86.80;;;;;;6130336;23;19912;-71
2022/08/17 20:46:34;;;;;;;;;;;10.20;86.30;;;;;;6156013;23;20003;-70
2022/08/17 20:49:10;;;;;;;;;;;10.30;86.60;;;;;;6156470;23;19904;-70
2022/08/17 20:51:49;;;;;;;;;;;10.30;86.50;;;;;;6155978;23;19908;-70
2022/08/17 20:54:16;;;;;;;;;;;10.30;86.30;;;;;;6155696;23;20325;-70
2022/08/17 20:56:42;;;;;;;;;;;10.30;86.40;;;;;;6156012;23;20280;-70
2022/08/17 20:59:30;;;;;;;;;;;10.40;86.30;;;;;;6155745;23;19920;-70
2022/08/17 21:02:06;;;;;;;;;;;10.40;86.50;;;;;;6096513;23;19908;-71
2022/08/17 21:04:53;;;;;;;;;;;10.40;86.20;;;;;;6155848;23;20324;-70
2022/08/17 21:07:22;;;;;;;;;;;10.40;86.40;;;;;;6155745;23;19983;-70
2022/08/17 21:09:49;;;;;;;;;;;10.40;85.80;;;;;;6155582;23;19911;-70
2022/08/17 21:12:36;;;;;;;;;;;10.40;85.80;;;;;;6155491;23;19944;-70
2022/08/17 21:15:03;;;;;;;;;;;10.40;85.60;;;;;;6135106;23;20225;-70
2022/08/17 21:17:32;;;;;;;;;;;10.40;85.60;;;;;;6155530;23;19928;-70
2022/08/17 21:20:19;;;;;;;;;;;10.40;85.60;;;;;;6155584;23;19905;-70
2022/08/17 21:23:05;;;;;;;;;;;10.50;85.80;;;;;;6154712;23;19904;-70
2022/08/17 21:25:47;;;;;;;;;;;10.50;85.50;;;;;;6155356;23;19905;-73
2022/08/17 21:28:22;;;;;;;;;;;10.50;85.60;;;;;;6155508;23;19920;-73
2022/08/17 21:30:50;;;;;;;;;;;10.60;85.50;;;;;;6155715;23;19988;-73
2022/08/17 21:33:19;;;;;;;;;;;10.70;85.80;;;;;;6129639;23;20252;-73
2022/08/17 21:35:48;;;;;;;;;;;10.70;85.40;;;;;;6155850;23;19913;-72
2022/08/17 21:38:15;;;;;;;;;;;10.70;85.20;;;;;;6155610;23;19932;-73
2022/08/17 21:40:46;;;;;;;;;;;10.70;85.00;;;;;;6104974;23;19904;-72
2022/08/17 21:43:23;;;;;;;;;;;10.80;84.90;;;;;;6154810;23;20236;-73
2022/08/17 21:45:56;;;;;;;;;;;10.80;84.70;;;;;;6129273;23;19905;-72
2022/08/17 21:48:23;;;;;;;;;;;10.90;84.40;;;;;;6129077;23;19904;-73
2022/08/17 21:50:59;;;;;;;;;;;10.90;84.20;;;;;;6155029;23;19971;-72
2022/08/17 21:53:41;;;;;;;;;;;10.90;84.10;;;;;;6155023;23;19915;-72
2022/08/17 21:56:08;;;;;;;;;;;11.00;84.00;;;;;;6129087;23;19913;-73
2022/08/17 21:58:38;;;;;;;;;;;11.10;83.90;;;;;;6155658;23;19936;-72
2022/08/17 22:01:09;;;;;;;;;;;11.20;84.00;;;;;;6128237;23;19908;-73
2022/08/17 22:03:37;;;;;;;;;;;11.20;83.40;;;;;;6154437;23;19909;-73
2022/08/17 22:06:20;;;;;;;;;;;11.30;83.30;;;;;;6129101;23;19905;-68
2022/08/17 22:08:59;;;;;;;;;;;11.30;83.00;;;;;;6155152;23;20351;-73
2022/08/17 22:11:27;;;;;;;;;;;11.40;83.10;;;;;;6154019;23;20430;-73
2022/08/17 22:13:53;;;;;;;;;;;11.50;82.80;;;;;;6153331;23;19916;-73
2022/08/17 22:16:21;;;;;;;;;;;11.60;82.80;;;;;;6127332;23;19919;-73
2022/08/17 22:18:47;;;;;;;;;;;11.60;82.10;;;;;;6153290;23;19968;-73
2022/08/17 22:21:14;;;;;;;;;;;11.60;81.80;;;;;;6127778;23;20007;-73
2022/08/17 22:26:27;;;;;;;;;;;11.60;81.20;;;;;;6132145;23;19911;-73
2022/08/17 22:28:55;;;;;;;;;;;11.70;81.00;;;;;;6128592;23;19928;-74
2022/08/17 22:31:23;;;;;;;;;;;11.70;81.10;;;;;;6154222;23;19951;-74
2022/08/17 22:33:59;;;;;;;;;;;11.70;80.60;;;;;;6128948;23;19917;-74
2022/08/17 22:36:28;;;;;;;;;;;11.80;80.60;;;;;;6154863;23;19908;-73
2022/08/17 22:38:58;;;;;;;;;;;11.80;79.90;;;;;;6153915;23;19909;-73
2022/08/17 22:41:39;;;;;;;;;;;11.90;79.70;;;;;;6154698;23;20240;-72
2022/08/17 22:44:08;;;;;;;;;;;11.90;79.70;;;;;;6155421;23;19980;-72
2022/08/17 22:46:38;;;;;;;;;;;12.00;79.60;;;;;;6155117;23;19905;-73
2022/08/17 22:49:05;;;;;;;;;;;12.00;79.50;;;;;;6129082;23;19909;-72
2022/08/17 22:51:31;;;;;;;;;;;12.00;79.00;;;;;;6128411;23;19983;-72
